createdAt,value
2017-08-26T00:00:54.488Z,13.30
2017-08-26T00:02:05.799Z,13.65
2017-08-26T00:03:11.671Z,13.52
2017-08-26T00:04:17.729Z,12.93
2017-08-26T00:05:23.812Z,12.20
2017-08-26T00:06:29.850Z,12.00
2017-08-26T00:07:35.932Z,14.00
2017-08-26T00:08:41.788Z,13.20
2017-08-26T00:09:47.900Z,13.68
2017-08-26T00:10:53.950Z,12.73
2017-08-26T00:11:59.991Z,13.25
2017-08-26T00:13:06.979Z,13.07
2017-08-26T00:14:13.027Z,13.13
2017-08-26T00:15:19.978Z,12.55
2017-08-26T00:16:26.016Z,13.38
2017-08-26T00:17:33.076Z,13.50
2017-08-26T00:18:39.174Z,12.60
2017-08-26T00:19:45.231Z,12.65
2017-08-26T00:20:52.403Z,12.10
2017-08-26T00:21:58.455Z,12.70
2017-08-26T00:23:04.507Z,13.07
2017-08-26T00:24:10.795Z,11.93
2017-08-26T00:25:17.787Z,12.43
2017-08-26T00:26:24.754Z,12.88
2017-08-26T00:27:31.611Z,10.77
2017-08-26T00:28:38.469Z,12.88
2017-08-26T00:29:44.562Z,12.23
2017-08-26T00:30:50.983Z,13.30
2017-08-26T00:31:58.046Z,12.90
2017-08-26T00:33:03.570Z,12.35
2017-08-26T00:34:09.636Z,13.60
2017-08-26T00:35:15.758Z,13.50
2017-08-26T00:36:21.812Z,13.27
2017-08-26T00:37:27.836Z,12.88
2017-08-26T00:38:34.783Z,12.73
2017-08-26T00:39:41.037Z,13.62
2017-08-26T00:40:47.859Z,12.40
2017-08-26T00:41:53.921Z,12.90
2017-08-26T00:42:59.763Z,13.18
2017-08-26T00:44:05.804Z,12.80
2017-08-26T00:45:11.480Z,13.60
2017-08-26T00:46:17.572Z,13.60
2017-08-26T00:47:23.634Z,13.95
2017-08-26T00:48:29.688Z,13.70
2017-08-26T00:49:35.746Z,12.73
2017-08-26T00:50:41.455Z,12.88
2017-08-26T00:51:47.650Z,13.50
2017-08-26T00:52:54.330Z,12.00
2017-08-26T00:54:00.380Z,12.65
2017-08-26T00:55:06.435Z,11.73
2017-08-26T00:56:12.491Z,13.43
2017-08-26T00:57:18.563Z,13.88
2017-08-26T00:58:25.339Z,13.50
2017-08-26T00:59:31.399Z,13.30
2017-08-26T01:00:37.693Z,14.40
2017-08-26T01:01:44.017Z,14.63
2017-08-26T01:02:49.556Z,14.27
2017-08-26T01:03:55.631Z,13.88
2017-08-26T01:05:01.497Z,13.82
2017-08-26T01:06:07.659Z,12.70
2017-08-26T01:07:18.353Z,13.95
2017-08-26T01:08:23.915Z,14.63
2017-08-26T01:09:30.332Z,13.32
2017-08-26T01:10:36.360Z,13.70
2017-08-26T01:11:44.216Z,13.55
2017-08-26T01:12:50.261Z,14.63
2017-08-26T01:13:56.530Z,13.23
2017-08-26T01:15:02.411Z,13.43
2017-08-26T01:16:08.470Z,12.93
2017-08-26T01:17:15.320Z,13.30
2017-08-26T01:18:21.362Z,14.65
2017-08-26T01:19:27.436Z,13.18
2017-08-26T01:20:33.355Z,13.00
2017-08-26T01:21:38.751Z,14.07
2017-08-26T01:22:44.833Z,14.07
2017-08-26T01:23:51.324Z,15.25
2017-08-26T01:24:57.445Z,14.07
2017-08-26T01:26:03.531Z,15.13
2017-08-26T01:27:09.672Z,14.63
2017-08-26T01:28:15.351Z,14.85
2017-08-26T01:29:21.419Z,16.20
2017-08-26T01:30:27.304Z,15.60
2017-08-26T01:31:33.342Z,15.15
2017-08-26T01:32:39.269Z,16.23
2017-08-26T01:33:46.196Z,15.93
2017-08-26T01:34:52.397Z,15.52
2017-08-26T01:35:58.755Z,15.10
2017-08-26T01:37:05.639Z,15.70
2017-08-26T01:38:12.542Z,15.68
2017-08-26T01:39:18.740Z,16.27
2017-08-26T01:40:24.819Z,14.52
2017-08-26T01:41:30.907Z,14.82
2017-08-26T01:42:36.956Z,14.70
2017-08-26T01:43:42.999Z,15.23
2017-08-26T01:44:49.064Z,15.00
2017-08-26T01:45:56.751Z,14.18
2017-08-26T01:47:02.854Z,15.50
2017-08-26T01:48:08.902Z,14.87
2017-08-26T01:49:14.951Z,15.95
2017-08-26T01:50:21.626Z,15.60
2017-08-26T01:51:28.651Z,13.73
2017-08-26T01:52:34.768Z,15.60
2017-08-26T01:53:40.854Z,15.30
2017-08-26T01:54:47.592Z,14.80
2017-08-26T01:55:53.924Z,13.02
2017-08-26T01:57:00.112Z,14.40
2017-08-26T01:58:06.219Z,14.70
2017-08-26T01:59:12.303Z,14.30
2017-08-26T02:00:18.357Z,14.25
2017-08-26T02:01:24.284Z,15.05
2017-08-26T02:02:30.324Z,15.07
2017-08-26T02:03:36.409Z,13.38
2017-08-26T02:04:42.655Z,14.20
2017-08-26T02:05:48.513Z,13.35
2017-08-26T02:06:54.591Z,14.10
2017-08-26T02:08:01.109Z,15.32
2017-08-26T02:09:07.726Z,17.75
2017-08-26T02:10:13.778Z,15.77
2017-08-26T02:11:19.811Z,15.82
2017-08-26T02:12:25.870Z,16.25
2017-08-26T02:13:31.928Z,18.00
2017-08-26T02:14:38.028Z,17.23
2017-08-26T02:15:44.136Z,20.08
2017-08-26T02:16:50.173Z,15.73
2017-08-26T02:17:56.215Z,16.65
2017-08-26T02:19:02.278Z,17.08
2017-08-26T02:20:08.368Z,19.62
2017-08-26T02:21:15.352Z,21.62
2017-08-26T02:22:22.104Z,16.90
2017-08-26T02:23:28.158Z,17.40
2017-08-26T02:24:34.195Z,16.62
2017-08-26T02:25:40.294Z,17.67
2017-08-26T02:26:46.335Z,16.85
2017-08-26T02:27:52.375Z,18.15
2017-08-26T02:28:58.427Z,17.65
2017-08-26T02:30:04.466Z,16.83
2017-08-26T02:31:10.357Z,16.02
2017-08-26T02:32:16.440Z,16.65
2017-08-26T02:33:22.488Z,16.60
2017-08-26T02:34:28.555Z,16.85
2017-08-26T02:35:34.796Z,17.42
2017-08-26T02:36:40.877Z,16.77
2017-08-26T02:37:47.009Z,17.42
2017-08-26T02:38:53.072Z,18.25
2017-08-26T02:39:59.127Z,17.52
2017-08-26T02:41:05.177Z,16.10
2017-08-26T02:42:11.264Z,14.87
2017-08-26T02:43:17.146Z,14.80
2017-08-26T02:44:23.209Z,14.87
2017-08-26T02:45:29.260Z,15.70
2017-08-26T02:46:35.326Z,16.20
2017-08-26T02:47:41.433Z,15.73
2017-08-26T02:48:47.584Z,15.95
2017-08-26T02:49:53.629Z,15.30
2017-08-26T02:50:59.700Z,15.52
2017-08-26T02:52:05.751Z,15.57
2017-08-26T02:53:12.435Z,15.27
2017-08-26T02:54:18.477Z,15.43
2017-08-26T02:55:24.527Z,16.55
2017-08-26T02:56:30.582Z,16.75
2017-08-26T02:57:37.408Z,15.93
2017-08-26T02:58:43.531Z,16.52
2017-08-26T02:59:49.593Z,17.08
2017-08-26T03:00:55.637Z,18.15
2017-08-26T03:02:01.682Z,17.77
2017-08-26T03:03:07.735Z,16.77
2017-08-26T03:04:13.911Z,18.50
2017-08-26T03:05:19.986Z,17.23
2017-08-26T03:06:26.019Z,18.48
2017-08-26T03:07:31.867Z,15.82
2017-08-26T03:08:37.934Z,16.77
2017-08-26T03:09:57.023Z,15.98
2017-08-26T03:11:04.540Z,15.85
2017-08-26T03:12:15.042Z,15.30
2017-08-26T03:13:22.523Z,14.95
2017-08-26T03:14:31.693Z,15.77
2017-08-26T03:15:39.361Z,16.27
2017-08-26T03:16:49.447Z,16.10
2017-08-26T03:18:05.971Z,15.68
2017-08-26T03:19:12.822Z,15.48
2017-08-26T03:20:22.025Z,16.77
2017-08-26T03:21:29.897Z,14.93
2017-08-26T03:22:37.156Z,15.75
2017-08-26T03:23:43.219Z,15.25
2017-08-26T03:24:48.915Z,13.52
2017-08-26T03:25:55.901Z,14.57
2017-08-26T03:27:02.766Z,15.55
2017-08-26T03:28:08.824Z,15.05
2017-08-26T03:29:14.908Z,14.10
2017-08-26T03:30:21.329Z,15.32
2017-08-26T03:31:27.803Z,16.30
2017-08-26T03:32:34.774Z,16.80
2017-08-26T03:33:40.929Z,17.02
2017-08-26T03:34:47.092Z,16.10
2017-08-26T03:35:53.175Z,15.65
2017-08-26T03:37:00.006Z,14.85
2017-08-26T03:38:06.075Z,16.33
2017-08-26T03:39:12.402Z,15.00
2017-08-26T03:40:18.679Z,13.82
2017-08-26T03:41:24.995Z,14.90
2017-08-26T03:42:31.115Z,13.65
2017-08-26T03:43:37.154Z,14.73
2017-08-26T03:44:43.834Z,16.48
2017-08-26T03:45:49.887Z,17.52
2017-08-26T03:46:56.957Z,16.05
2017-08-26T03:48:03.044Z,18.40
2017-08-26T03:49:10.013Z,16.85
2017-08-26T03:50:16.068Z,18.33
2017-08-26T03:51:22.141Z,19.00
2017-08-26T03:52:29.543Z,20.15
2017-08-26T03:53:39.192Z,20.65
2017-08-26T03:54:45.971Z,20.62
2017-08-26T03:55:52.428Z,21.27
2017-08-26T03:56:58.484Z,18.23
2017-08-26T03:58:04.543Z,19.52
2017-08-26T03:59:10.631Z,20.83
2017-08-26T04:00:17.583Z,19.92
2017-08-26T04:01:23.646Z,19.95
2017-08-26T04:02:29.714Z,20.20
2017-08-26T04:03:35.769Z,21.33
2017-08-26T04:04:41.902Z,20.05
2017-08-26T04:05:49.082Z,20.00
2017-08-26T04:06:55.143Z,18.83
2017-08-26T04:08:02.275Z,20.02
2017-08-26T04:09:08.312Z,19.65
2017-08-26T04:10:17.193Z,17.85
2017-08-26T04:11:26.950Z,18.60
2017-08-26T04:12:39.510Z,18.67
2017-08-26T04:13:47.720Z,18.80
2017-08-26T04:14:55.938Z,20.27
2017-08-26T04:16:03.255Z,19.98
2017-08-26T04:17:12.341Z,20.10
2017-08-26T04:18:19.167Z,18.37
2017-08-26T04:19:26.190Z,17.75
2017-08-26T04:20:34.828Z,17.12
2017-08-26T04:21:41.638Z,19.12
2017-08-26T04:22:51.754Z,18.87
2017-08-26T04:24:03.162Z,19.12
2017-08-26T04:25:12.938Z,18.90
2017-08-26T04:26:19.742Z,21.20
2017-08-26T04:27:27.482Z,22.13
2017-08-26T04:28:37.518Z,21.80
2017-08-26T04:29:45.682Z,23.85
2017-08-26T04:30:53.549Z,22.58
2017-08-26T04:32:02.726Z,23.15
2017-08-26T04:33:09.292Z,20.60
2017-08-26T04:34:17.118Z,20.08
2017-08-26T04:35:24.950Z,19.87
2017-08-26T04:36:33.724Z,19.50
2017-08-26T04:37:44.984Z,18.48
2017-08-26T04:38:55.937Z,20.42
2017-08-26T04:40:04.191Z,21.75
2017-08-26T04:41:14.507Z,21.77
2017-08-26T04:42:24.227Z,22.30
2017-08-26T04:43:32.154Z,23.17
2017-08-26T04:44:40.414Z,23.83
2017-08-26T04:45:52.210Z,21.27
2017-08-26T04:46:58.514Z,20.67
2017-08-26T04:48:06.231Z,21.35
2017-08-26T04:49:15.292Z,20.10
2017-08-26T04:50:24.677Z,19.67
2017-08-26T04:51:31.317Z,21.08
2017-08-26T04:52:40.717Z,22.52
2017-08-26T04:53:49.166Z,19.90
2017-08-26T04:54:57.109Z,22.20
2017-08-26T04:56:07.097Z,21.85
2017-08-26T04:57:13.969Z,22.73
2017-08-26T04:58:22.632Z,21.42
2017-08-26T04:59:31.131Z,21.75
2017-08-26T05:00:38.769Z,22.00
2017-08-26T05:01:45.592Z,19.05
2017-08-26T05:02:56.652Z,19.95
2017-08-26T05:04:03.915Z,20.35
2017-08-26T05:05:11.634Z,21.17
2017-08-26T05:06:18.455Z,20.55
2017-08-26T05:07:27.706Z,20.48
2017-08-26T05:08:40.371Z,18.58
2017-08-26T05:09:48.917Z,19.40
2017-08-26T05:10:58.819Z,20.67
2017-08-26T05:12:08.270Z,18.62
2017-08-26T05:13:16.125Z,18.85
2017-08-26T05:14:23.741Z,18.83
2017-08-26T05:15:30.038Z,20.12
2017-08-26T05:16:39.286Z,18.90
2017-08-26T05:17:45.857Z,21.25
2017-08-26T05:18:51.911Z,19.17
2017-08-26T05:19:58.737Z,18.15
2017-08-26T05:21:05.506Z,19.50
2017-08-26T05:22:12.654Z,19.37
2017-08-26T05:23:19.523Z,19.80
2017-08-26T05:24:25.576Z,19.37
2017-08-26T05:25:33.488Z,19.08
2017-08-26T05:26:39.833Z,19.77
2017-08-26T05:27:45.912Z,19.92
2017-08-26T05:28:51.942Z,20.05
2017-08-26T05:29:57.970Z,19.87
2017-08-26T05:31:04.026Z,20.40
2017-08-26T05:32:10.888Z,18.08
2017-08-26T05:33:16.820Z,18.87
2017-08-26T05:34:22.758Z,18.35
2017-08-26T05:35:28.791Z,19.58
2017-08-26T05:36:34.833Z,20.55
2017-08-26T05:37:41.863Z,18.95
2017-08-26T05:38:48.039Z,21.48
2017-08-26T05:39:54.147Z,20.65
2017-08-26T05:41:00.218Z,21.35
2017-08-26T05:42:06.984Z,20.05
2017-08-26T05:43:13.123Z,19.62
2017-08-26T05:44:20.172Z,20.90
2017-08-26T05:45:26.067Z,22.05
2017-08-26T05:46:32.377Z,21.73
2017-08-26T05:47:40.294Z,23.25
2017-08-26T05:48:47.976Z,24.02
2017-08-26T05:49:54.243Z,25.12
2017-08-26T05:51:02.299Z,24.85
2017-08-26T05:52:13.248Z,25.02
2017-08-26T05:53:20.404Z,24.37
2017-08-26T05:54:26.546Z,23.02
2017-08-26T05:55:33.350Z,24.87
2017-08-26T05:56:39.730Z,24.45
2017-08-26T05:57:49.175Z,23.30
2017-08-26T05:58:57.047Z,24.70
2017-08-26T06:00:05.288Z,26.15
2017-08-26T06:01:11.454Z,26.25
2017-08-26T06:02:17.496Z,26.58
2017-08-26T06:03:24.069Z,24.70
2017-08-26T06:04:30.101Z,26.00
2017-08-26T06:05:37.973Z,23.80
2017-08-26T06:06:44.067Z,23.35
2017-08-26T06:07:50.108Z,23.60
2017-08-26T06:08:56.150Z,24.52
2017-08-26T06:10:02.659Z,25.70
2017-08-26T06:11:08.718Z,25.77
2017-08-26T06:12:15.407Z,26.67
2017-08-26T06:13:21.460Z,26.55
2017-08-26T06:14:27.506Z,27.10
2017-08-26T06:15:36.265Z,25.60
2017-08-26T06:16:42.390Z,26.95
2017-08-26T06:17:48.568Z,26.10
2017-08-26T06:18:54.623Z,29.60
2017-08-26T06:20:00.671Z,28.27
2017-08-26T06:21:06.179Z,27.05
2017-08-26T06:22:12.233Z,26.75
2017-08-26T06:23:18.299Z,29.23
2017-08-26T06:24:24.355Z,25.55
2017-08-26T06:25:30.416Z,27.08
2017-08-26T06:26:37.180Z,29.50
2017-08-26T06:27:43.235Z,26.25
2017-08-26T06:28:49.346Z,28.12
2017-08-26T06:29:55.396Z,26.23
2017-08-26T06:31:01.456Z,27.17
2017-08-26T06:32:07.516Z,27.00
2017-08-26T06:33:13.572Z,28.10
2017-08-26T06:34:19.649Z,28.33
2017-08-26T06:35:25.775Z,27.98
2017-08-26T06:36:31.811Z,29.50
2017-08-26T06:37:37.858Z,29.05
2017-08-26T06:38:43.906Z,28.30
2017-08-26T06:39:49.987Z,28.90
2017-08-26T06:40:56.031Z,30.90
2017-08-26T06:42:02.085Z,32.95
2017-08-26T06:43:08.160Z,32.95
2017-08-26T06:44:14.221Z,31.20
2017-08-26T06:45:20.327Z,29.65
2017-08-26T06:46:26.367Z,28.90
2017-08-26T06:47:32.415Z,27.90
2017-08-26T06:48:38.476Z,28.40
2017-08-26T06:49:44.541Z,30.20
2017-08-26T06:50:50.620Z,31.80
2017-08-26T06:51:56.370Z,29.98
2017-08-26T06:53:35.183Z,29.10
2017-08-26T06:54:47.873Z,29.63
2017-08-26T06:55:54.015Z,30.80
2017-08-26T06:57:00.125Z,28.02
2017-08-26T06:58:06.249Z,29.77
2017-08-26T06:59:12.347Z,30.77
2017-08-26T07:00:18.404Z,31.02
2017-08-26T07:01:27.815Z,30.02
2017-08-26T07:02:35.180Z,29.52
2017-08-26T07:03:41.343Z,29.00
2017-08-26T07:04:50.865Z,30.75
2017-08-26T07:05:57.756Z,29.60
2017-08-26T07:07:05.457Z,31.42
2017-08-26T07:08:12.658Z,30.05
2017-08-26T07:09:19.485Z,27.90
2017-08-26T07:10:27.422Z,29.27
2017-08-26T07:11:34.249Z,29.45
2017-08-26T07:12:41.906Z,31.77
2017-08-26T07:13:49.504Z,30.67
2017-08-26T07:14:56.670Z,32.45
2017-08-26T07:16:03.268Z,33.90
2017-08-26T07:17:11.050Z,31.60
2017-08-26T07:18:18.966Z,32.30
2017-08-26T07:19:26.766Z,30.60
2017-08-26T07:20:33.233Z,30.83
2017-08-26T07:21:41.695Z,34.00
2017-08-26T07:22:49.817Z,33.22
2017-08-26T07:23:57.298Z,33.15
2017-08-26T07:25:04.699Z,33.25
2017-08-26T07:26:10.748Z,35.28
2017-08-26T07:27:18.071Z,33.38
2017-08-26T07:28:25.408Z,33.42
2017-08-26T07:29:32.210Z,33.45
2017-08-26T07:30:39.326Z,33.33
2017-08-26T07:31:47.041Z,32.90
2017-08-26T07:32:56.129Z,31.85
2017-08-26T07:34:03.546Z,33.20
2017-08-26T07:35:10.515Z,31.17
2017-08-26T07:36:18.296Z,32.95
2017-08-26T07:37:26.131Z,32.42
2017-08-26T07:38:33.056Z,33.53
2017-08-26T07:39:40.250Z,37.97
2017-08-26T07:40:48.037Z,35.55
2017-08-26T07:41:56.086Z,36.53
2017-08-26T07:43:03.446Z,38.55
2017-08-26T07:44:10.602Z,35.45
2017-08-26T07:45:18.611Z,35.80
2017-08-26T07:46:25.932Z,36.78
2017-08-26T07:47:31.978Z,33.55
2017-08-26T07:48:38.039Z,34.75
2017-08-26T07:49:46.215Z,34.80
2017-08-26T07:50:53.748Z,34.83
2017-08-26T07:52:01.626Z,36.58
2017-08-26T07:53:10.028Z,35.42
2017-08-26T07:54:18.280Z,33.72
2017-08-26T07:55:27.040Z,34.53
2017-08-26T07:56:34.437Z,32.58
2017-08-26T07:57:41.157Z,33.15
2017-08-26T07:58:47.258Z,34.28
2017-08-26T07:59:55.096Z,33.85
2017-08-26T08:01:04.525Z,33.63
2017-08-26T08:02:11.277Z,33.85
2017-08-26T08:03:18.161Z,33.05
2017-08-26T08:04:27.804Z,35.47
2017-08-26T08:05:37.185Z,34.97
2017-08-26T08:06:43.596Z,33.17
2017-08-26T08:07:50.091Z,34.92
2017-08-26T08:09:01.696Z,37.85
2017-08-26T08:10:09.496Z,36.63
2017-08-26T08:11:17.856Z,36.75
2017-08-26T08:12:25.766Z,37.28
2017-08-26T08:13:31.953Z,36.85
2017-08-26T08:14:39.344Z,34.50
2017-08-26T08:15:47.145Z,35.30
2017-08-26T08:16:56.133Z,34.97
2017-08-26T08:18:05.029Z,33.67
2017-08-26T08:19:13.644Z,32.70
2017-08-26T08:20:21.210Z,34.58
2017-08-26T08:21:27.856Z,33.60
2017-08-26T08:22:35.341Z,35.10
2017-08-26T08:23:44.667Z,33.50
2017-08-26T08:24:52.897Z,33.50
2017-08-26T08:26:03.592Z,33.85
2017-08-26T08:27:12.014Z,32.10
2017-08-26T08:28:19.530Z,34.92
2017-08-26T08:29:28.214Z,32.33
2017-08-26T08:30:36.373Z,33.78
2017-08-26T08:31:44.215Z,32.22
2017-08-26T08:32:53.456Z,34.10
2017-08-26T08:34:00.129Z,32.33
2017-08-26T08:35:07.700Z,33.97
2017-08-26T08:38:29.513Z,33.60
2017-08-26T08:39:39.655Z,32.97
2017-08-26T08:40:47.668Z,32.65
2017-08-26T08:41:56.156Z,34.78
2017-08-26T08:43:03.463Z,34.92
2017-08-26T08:44:09.815Z,35.72
2017-08-26T08:45:17.969Z,36.30
2017-08-26T08:46:24.548Z,36.33
2017-08-26T08:47:30.863Z,39.08
2017-08-26T08:48:39.027Z,39.13
2017-08-26T08:49:45.410Z,38.75
2017-08-26T08:50:51.519Z,36.97
2017-08-26T08:51:57.580Z,36.63
2017-08-26T08:53:03.612Z,37.22
2017-08-26T08:54:09.665Z,34.25
2017-08-26T08:55:15.499Z,36.30
2017-08-26T08:56:21.391Z,35.92
2017-08-26T08:57:27.261Z,33.97
2017-08-26T08:58:33.318Z,36.45
2017-08-26T08:59:39.392Z,36.22
2017-08-26T09:00:45.095Z,34.60
2017-08-26T09:01:51.158Z,36.65
2017-08-26T09:02:57.205Z,40.10
2017-08-26T09:04:03.252Z,39.15
2017-08-26T09:05:09.333Z,38.67
2017-08-26T09:06:15.384Z,38.90
2017-08-26T09:07:21.637Z,40.95
2017-08-26T09:08:27.683Z,39.70
2017-08-26T09:09:33.768Z,42.50
2017-08-26T09:10:39.932Z,41.90
2017-08-26T09:11:45.978Z,42.67
2017-08-26T09:12:52.095Z,41.60
2017-08-26T09:13:58.174Z,42.67
2017-08-26T09:15:04.248Z,39.35
2017-08-26T09:16:10.311Z,39.85
2017-08-26T09:17:16.386Z,39.90
2017-08-26T09:18:22.494Z,37.53
2017-08-26T09:19:28.557Z,41.00
2017-08-26T09:20:34.591Z,39.50
2017-08-26T09:21:40.640Z,35.83
2017-08-26T09:22:46.496Z,38.67
2017-08-26T09:23:52.576Z,38.63
2017-08-26T09:24:58.638Z,39.63
2017-08-26T09:26:05.807Z,40.25
2017-08-26T09:27:11.852Z,39.83
2017-08-26T09:28:17.894Z,37.67
2017-08-26T09:29:23.987Z,36.70
2017-08-26T09:30:30.062Z,39.38
2017-08-26T09:31:36.115Z,40.10
2017-08-26T09:32:42.202Z,39.67
2017-08-26T09:33:49.224Z,37.63
2017-08-26T09:34:55.288Z,40.83
2017-08-26T09:36:01.346Z,39.40
2017-08-26T09:37:07.405Z,38.97
2017-08-26T09:38:13.439Z,38.03
2017-08-26T09:39:19.502Z,37.40
2017-08-26T09:40:25.636Z,37.00
2017-08-26T09:41:31.476Z,35.97
2017-08-26T09:42:37.502Z,35.60
2017-08-26T09:43:43.559Z,36.25
2017-08-26T09:44:49.594Z,32.75
2017-08-26T09:45:55.668Z,31.73
2017-08-26T09:47:01.707Z,30.85
2017-08-26T09:48:07.789Z,32.85
2017-08-26T09:49:13.664Z,33.25
2017-08-26T09:50:19.714Z,32.17
2017-08-26T09:51:25.639Z,33.90
2017-08-26T09:52:31.674Z,32.00
2017-08-26T09:53:37.733Z,35.75
2017-08-26T09:54:43.777Z,31.80
2017-08-26T09:55:49.832Z,31.12
2017-08-26T09:56:55.910Z,30.83
2017-08-26T09:58:01.977Z,31.62
2017-08-26T09:59:08.014Z,30.85
2017-08-26T10:00:14.067Z,33.45
2017-08-26T10:01:20.103Z,32.38
2017-08-26T10:02:26.220Z,34.55
2017-08-26T10:03:32.272Z,32.58
2017-08-26T10:04:38.332Z,35.08
2017-08-26T10:05:44.376Z,34.08
2017-08-26T10:06:50.417Z,34.80
2017-08-26T10:07:56.538Z,32.25
2017-08-26T10:09:02.587Z,32.03
2017-08-26T10:10:08.451Z,30.50
2017-08-26T10:11:14.505Z,30.58
2017-08-26T10:12:20.611Z,31.05
2017-08-26T10:13:26.710Z,31.23
2017-08-26T10:14:32.767Z,32.10
2017-08-26T10:15:38.805Z,33.55
2017-08-26T10:16:44.850Z,29.33
2017-08-26T10:17:50.913Z,27.60
2017-08-26T10:18:56.990Z,29.70
2017-08-26T10:20:03.083Z,29.17
2017-08-26T10:21:09.148Z,28.12
2017-08-26T10:22:15.195Z,30.80
2017-08-26T10:23:21.047Z,27.80
2017-08-26T10:24:27.112Z,28.75
2017-08-26T10:25:33.165Z,30.08
2017-08-26T10:26:39.201Z,32.95
2017-08-26T10:27:45.281Z,30.70
2017-08-26T10:28:51.343Z,31.45
2017-08-26T10:29:57.294Z,29.30
2017-08-26T10:31:03.172Z,32.80
2017-08-26T10:32:09.027Z,30.77
2017-08-26T10:33:15.496Z,29.95
2017-08-26T10:34:21.363Z,29.75
2017-08-26T10:35:27.549Z,31.08
2017-08-26T10:36:33.425Z,30.02
2017-08-26T10:37:39.296Z,29.77
2017-08-26T10:38:45.143Z,29.52
2017-08-26T10:39:51.017Z,29.15
2017-08-26T10:40:56.923Z,29.40
2017-08-26T10:42:02.820Z,29.80
2017-08-26T10:43:08.681Z,31.00
2017-08-26T10:44:14.544Z,26.95
2017-08-26T10:45:20.389Z,25.17
2017-08-26T10:46:26.282Z,25.23
2017-08-26T10:47:32.258Z,21.83
2017-08-26T10:48:37.913Z,19.98
2017-08-26T10:49:43.570Z,16.73
2017-08-26T10:50:49.431Z,15.93
2017-08-26T10:51:55.334Z,16.73
2017-08-26T10:53:01.186Z,17.85
2017-08-26T10:54:07.246Z,18.42
2017-08-26T10:55:13.309Z,19.30
2017-08-26T10:56:19.146Z,20.62
2017-08-26T10:57:25.901Z,19.27
2017-08-26T10:58:31.766Z,19.70
2017-08-26T10:59:37.815Z,18.80
2017-08-26T11:00:43.870Z,21.98
2017-08-26T11:01:49.915Z,19.55
2017-08-26T11:02:56.011Z,19.10
2017-08-26T11:04:01.867Z,17.60
2017-08-26T11:05:07.749Z,17.87
2017-08-26T11:06:13.802Z,15.85
2017-08-26T11:07:19.871Z,18.00
2017-08-26T11:08:25.961Z,18.48
2017-08-26T11:09:32.012Z,18.83
2017-08-26T11:10:38.058Z,18.25
2017-08-26T11:11:44.124Z,20.60
2017-08-26T11:12:50.185Z,17.80
2017-08-26T11:13:56.251Z,20.25
2017-08-26T11:15:02.307Z,17.10
2017-08-26T11:16:08.355Z,16.00
2017-08-26T11:17:14.416Z,16.83
2017-08-26T11:18:20.494Z,15.02
2017-08-26T11:19:26.604Z,15.98
2017-08-26T11:20:32.456Z,17.87
2017-08-26T11:21:38.487Z,18.27
2017-08-26T11:22:44.337Z,16.98
2017-08-26T11:23:50.412Z,16.40
2017-08-26T11:24:56.503Z,16.77
2017-08-26T11:26:02.564Z,15.20
2017-08-26T11:27:08.414Z,13.57
2017-08-26T11:28:14.564Z,14.87
2017-08-26T11:29:20.618Z,17.20
2017-08-26T11:30:26.723Z,16.08
2017-08-26T11:31:32.786Z,14.87
2017-08-26T11:32:38.880Z,15.60
2017-08-26T11:33:44.935Z,14.73
2017-08-26T11:34:50.799Z,15.38
2017-08-26T11:35:56.868Z,14.63
2017-08-26T11:37:02.943Z,12.75
2017-08-26T11:38:08.995Z,12.52
2017-08-26T11:39:15.050Z,12.45
2017-08-26T11:40:21.114Z,11.00
2017-08-26T11:41:27.213Z,10.38
2017-08-26T11:42:33.271Z,11.15
2017-08-26T11:43:39.323Z,11.43
2017-08-26T11:44:45.375Z,12.18
2017-08-26T11:45:51.438Z,11.75
2017-08-26T11:46:57.218Z,10.43
2017-08-26T11:48:03.314Z,11.32
2017-08-26T11:49:09.359Z,9.60
2017-08-26T11:50:15.198Z,9.40
2017-08-26T11:51:21.251Z,12.30
2017-08-26T11:52:27.399Z,11.15
2017-08-26T11:53:33.470Z,12.37
2017-08-26T11:54:40.434Z,11.00
2017-08-26T11:55:46.538Z,8.93
2017-08-26T11:56:52.607Z,10.55
2017-08-26T11:57:58.737Z,11.57
2017-08-26T11:59:06.568Z,12.73
2017-08-26T12:00:14.090Z,11.12
2017-08-26T12:01:23.398Z,10.68
2017-08-26T12:02:31.434Z,11.32
2017-08-26T12:03:39.549Z,14.07
2017-08-26T12:04:48.062Z,13.70
2017-08-26T12:05:57.142Z,13.48
2017-08-26T12:07:06.904Z,12.77
2017-08-26T12:08:18.934Z,10.18
2017-08-26T12:09:26.483Z,10.40
2017-08-26T12:10:33.394Z,10.55
2017-08-26T12:11:40.420Z,9.38
2017-08-26T12:12:46.475Z,8.88
2017-08-26T12:13:52.979Z,8.73
2017-08-26T12:14:59.552Z,7.82
2017-08-26T12:16:05.962Z,7.72
2017-08-26T12:17:13.972Z,8.10
2017-08-26T12:18:22.434Z,8.60
2017-08-26T12:19:30.855Z,8.55
2017-08-26T12:20:40.215Z,8.48
2017-08-26T12:21:49.251Z,6.68
2017-08-26T12:22:56.518Z,7.35
2017-08-26T12:24:02.937Z,7.07
2017-08-26T12:25:10.535Z,7.75
2017-08-26T12:26:20.268Z,6.97
2017-08-26T12:27:26.780Z,7.70
2017-08-26T12:28:34.743Z,7.22
2017-08-26T12:29:42.843Z,6.82
2017-08-26T12:30:48.964Z,7.57
2017-08-26T12:31:59.632Z,8.23
2017-08-26T12:33:05.760Z,9.02
2017-08-26T12:34:11.790Z,9.85
2017-08-26T12:35:17.829Z,8.45
2017-08-26T12:36:23.868Z,7.95
2017-08-26T12:37:29.954Z,7.70
2017-08-26T12:38:35.987Z,7.78
2017-08-26T12:39:42.007Z,8.90
2017-08-26T12:40:48.116Z,8.40
2017-08-26T12:41:53.948Z,8.20
2017-08-26T12:43:00.021Z,8.05
2017-08-26T12:44:06.086Z,8.55
2017-08-26T12:45:12.152Z,8.70
2017-08-26T12:46:18.184Z,7.80
2017-08-26T12:47:24.219Z,8.35
2017-08-26T12:48:30.317Z,7.50
2017-08-26T12:49:36.141Z,6.85
2017-08-26T12:50:42.028Z,7.60
2017-08-26T12:51:47.929Z,7.75
2017-08-26T12:52:53.774Z,8.30
2017-08-26T12:53:59.659Z,9.43
2017-08-26T12:55:05.496Z,8.23
2017-08-26T12:56:11.340Z,8.98
2017-08-26T12:57:17.159Z,8.00
2017-08-26T12:58:23.000Z,8.90
2017-08-26T12:59:28.851Z,8.30
2017-08-26T13:00:34.666Z,8.20
2017-08-26T13:01:40.511Z,8.50
2017-08-26T13:02:46.339Z,9.48
2017-08-26T13:03:52.169Z,8.27
2017-08-26T13:04:58.018Z,7.78
2017-08-26T13:06:03.864Z,9.20
2017-08-26T13:07:09.911Z,8.15
2017-08-26T13:08:15.745Z,7.93
2017-08-26T13:09:21.572Z,8.15
2017-08-26T13:10:27.443Z,7.70
2017-08-26T13:11:33.267Z,7.40
2017-08-26T13:12:39.103Z,7.72
2017-08-26T13:13:44.932Z,8.40
2017-08-26T13:14:50.753Z,6.95
2017-08-26T13:15:56.344Z,6.90
2017-08-26T13:17:01.896Z,6.70
2017-08-26T13:18:07.727Z,6.35
2017-08-26T13:19:13.564Z,6.18
2017-08-26T13:20:19.406Z,5.95
2017-08-26T13:21:25.296Z,7.05
2017-08-26T13:22:30.835Z,6.50
2017-08-26T13:23:36.694Z,6.85
2017-08-26T13:24:42.557Z,6.78
2017-08-26T13:25:48.455Z,6.00
2017-08-26T13:26:54.584Z,6.70
2017-08-26T13:28:00.412Z,7.82
2017-08-26T13:29:05.963Z,6.63
2017-08-26T13:30:11.835Z,6.80
2017-08-26T13:31:17.671Z,5.82
2017-08-26T13:32:23.535Z,7.12
2017-08-26T13:33:29.379Z,6.75
2017-08-26T13:34:34.923Z,7.00
2017-08-26T13:35:40.744Z,6.65
2017-08-26T13:36:46.290Z,7.03
2017-08-26T13:37:52.157Z,6.78
2017-08-26T13:38:57.694Z,6.40
2017-08-26T13:40:03.547Z,7.50
2017-08-26T13:41:09.363Z,6.80
2017-08-26T13:42:15.698Z,5.90
2017-08-26T13:43:21.575Z,7.00
2017-08-26T13:44:27.127Z,6.47
2017-08-26T13:45:32.962Z,6.40
2017-08-26T13:46:38.497Z,5.77
2017-08-26T13:47:44.323Z,6.40
2017-08-26T13:48:50.175Z,7.05
2017-08-26T13:49:55.751Z,6.50
2017-08-26T13:51:01.291Z,5.67
2017-08-26T13:52:08.054Z,6.55
2017-08-26T13:53:13.893Z,7.60
2017-08-26T13:54:19.734Z,7.47
2017-08-26T13:55:25.295Z,7.40
2017-08-26T13:56:30.829Z,7.13
2017-08-26T13:57:36.376Z,7.33
2017-08-26T13:58:42.202Z,6.78
2017-08-26T13:59:47.892Z,9.40
2017-08-26T14:00:53.710Z,7.85
2017-08-26T14:01:59.249Z,7.07
2017-08-26T14:03:04.794Z,7.60
2017-08-26T14:04:10.360Z,7.37
2017-08-26T14:05:16.240Z,6.28
2017-08-26T14:06:22.059Z,7.78
2017-08-26T14:07:27.879Z,8.90
2017-08-26T14:08:33.682Z,8.05
2017-08-26T14:09:39.507Z,7.95
2017-08-26T14:10:46.070Z,8.47
2017-08-26T14:11:51.920Z,7.87
2017-08-26T14:12:57.762Z,9.23
2017-08-26T14:14:03.591Z,7.57
2017-08-26T14:15:09.118Z,8.53
2017-08-26T14:16:14.715Z,7.83
2017-08-26T14:17:20.255Z,8.53
2017-08-26T14:18:27.150Z,9.83
2017-08-26T14:19:35.278Z,9.90
2017-08-26T14:20:41.625Z,8.70
2017-08-26T14:21:49.139Z,9.10
2017-08-26T14:22:57.830Z,8.33
2017-08-26T14:24:04.197Z,8.70
2017-08-26T14:25:09.723Z,8.00
2017-08-26T14:26:16.470Z,9.80